createdAt,value
2017-04-09T00:00:32.942Z,7.13
2017-04-09T00:01:33.708Z,7.03
2017-04-09T00:02:34.730Z,6.99
2017-04-09T00:03:35.495Z,7.02
2017-04-09T00:04:36.261Z,7.17
2017-04-09T00:05:37.214Z,7.14
2017-04-09T00:06:37.980Z,7.00
2017-04-09T00:07:38.996Z,6.97
2017-04-09T00:08:39.763Z,7.02
2017-04-09T00:09:40.535Z,7.03
2017-04-09T00:10:41.300Z,6.96
2017-04-09T00:11:42.068Z,6.97
2017-04-09T00:12:43.083Z,6.99
2017-04-09T00:13:43.850Z,6.95
2017-04-09T00:14:44.618Z,6.95
2017-04-09T00:15:45.384Z,7.00
2017-04-09T00:16:46.154Z,6.84
2017-04-09T00:17:47.171Z,6.82
2017-04-09T00:18:47.940Z,6.87
2017-04-09T00:19:48.704Z,6.88
2017-04-09T00:20:49.474Z,6.85
2017-04-09T00:21:50.239Z,6.87
2017-04-09T00:22:51.307Z,6.84
2017-04-09T00:23:52.074Z,6.87
2017-04-09T00:24:52.841Z,6.82
2017-04-09T00:25:53.610Z,6.79
2017-04-09T00:26:54.378Z,6.77
2017-04-09T00:27:55.444Z,6.77
2017-04-09T00:28:56.207Z,6.72
2017-04-09T00:29:56.978Z,6.78
2017-04-09T00:30:57.744Z,6.70
2017-04-09T00:31:58.513Z,6.72
2017-04-09T00:32:59.583Z,6.72
2017-04-09T00:34:00.357Z,6.74
2017-04-09T00:35:01.120Z,6.69
2017-04-09T00:36:01.889Z,6.70
2017-04-09T00:37:02.654Z,6.70
2017-04-09T00:38:03.673Z,6.69
2017-04-09T00:39:04.438Z,6.64
2017-04-09T00:40:05.203Z,6.74
2017-04-09T00:41:05.970Z,6.66
2017-04-09T00:42:06.737Z,6.66
2017-04-09T00:43:07.803Z,6.69
2017-04-09T00:44:08.573Z,6.70
2017-04-09T00:45:09.336Z,6.64
2017-04-09T00:46:10.103Z,6.60
2017-04-09T00:47:10.872Z,6.59
2017-04-09T00:48:11.889Z,6.62
2017-04-09T00:49:12.659Z,6.59
2017-04-09T00:50:13.430Z,6.59
2017-04-09T00:51:14.195Z,6.52
2017-04-09T00:52:14.962Z,6.62
2017-04-09T00:53:16.027Z,6.51
2017-04-09T00:54:16.798Z,6.49
2017-04-09T00:55:17.563Z,6.51
2017-04-09T00:56:18.333Z,6.51
2017-04-09T00:57:19.099Z,6.48
2017-04-09T00:58:20.122Z,6.39
2017-04-09T00:59:20.888Z,6.41
2017-04-09T01:00:21.658Z,6.36
2017-04-09T01:01:22.423Z,6.42
2017-04-09T01:02:23.192Z,6.31
2017-04-09T01:03:24.206Z,6.41
2017-04-09T01:04:24.977Z,6.39
2017-04-09T01:05:25.743Z,6.27
2017-04-09T01:06:26.514Z,6.41
2017-04-09T01:07:27.279Z,6.41
2017-04-09T01:08:28.300Z,6.36
2017-04-09T01:09:29.065Z,6.31
2017-04-09T01:10:29.834Z,6.41
2017-04-09T01:11:30.602Z,6.16
2017-04-09T01:12:31.369Z,6.17
2017-04-09T01:13:32.384Z,6.24
2017-04-09T01:14:33.153Z,6.27
2017-04-09T01:15:34.104Z,6.19
2017-04-09T01:16:34.870Z,6.19
2017-04-09T01:17:35.637Z,6.17
2017-04-09T01:18:36.660Z,6.22
2017-04-09T01:19:37.423Z,6.19
2017-04-09T01:20:38.188Z,6.14
2017-04-09T01:21:38.957Z,6.14
2017-04-09T01:22:39.721Z,6.16
2017-04-09T01:23:40.741Z,6.05
2017-04-09T01:24:41.504Z,6.11
2017-04-09T01:25:42.278Z,6.09
2017-04-09T01:26:43.338Z,6.09
2017-04-09T01:27:44.105Z,6.09
2017-04-09T01:28:44.871Z,5.99
2017-04-09T01:29:45.642Z,6.01
2017-04-09T01:30:46.404Z,5.98
2017-04-09T01:31:47.421Z,6.02
2017-04-09T01:32:48.188Z,6.08
2017-04-09T01:33:48.954Z,6.04
2017-04-09T01:34:49.719Z,6.07
2017-04-09T01:35:50.489Z,6.04
2017-04-09T01:36:51.503Z,6.05
2017-04-09T01:37:52.271Z,5.94
2017-04-09T01:38:53.040Z,6.04
2017-04-09T01:39:53.805Z,5.94
2017-04-09T01:40:54.575Z,5.97
2017-04-09T01:41:55.590Z,5.93
2017-04-09T01:42:56.358Z,5.91
2017-04-09T01:43:57.125Z,5.90
2017-04-09T01:44:57.892Z,5.99
2017-04-09T01:45:58.660Z,5.89
2017-04-09T01:46:59.678Z,5.91
2017-04-09T01:48:00.626Z,5.89
2017-04-09T01:49:01.394Z,5.93
2017-04-09T01:50:02.161Z,5.83
2017-04-09T01:51:02.927Z,5.90
2017-04-09T01:52:03.946Z,5.83
2017-04-09T01:53:04.713Z,5.89
2017-04-09T01:54:05.481Z,5.89
2017-04-09T01:55:06.246Z,5.79
2017-04-09T01:56:07.016Z,5.83
2017-04-09T01:57:08.029Z,5.83
2017-04-09T01:58:08.796Z,5.73
2017-04-09T01:59:09.562Z,5.80
2017-04-09T02:00:10.325Z,5.82
2017-04-09T02:01:11.093Z,5.79
2017-04-09T02:02:12.109Z,5.83
2017-04-09T02:03:12.875Z,5.73
2017-04-09T02:04:13.645Z,5.75
2017-04-09T02:05:14.409Z,5.75
2017-04-09T02:06:15.175Z,5.80
2017-04-09T02:07:16.191Z,5.73
2017-04-09T02:08:16.954Z,5.73
2017-04-09T02:09:17.726Z,5.73
2017-04-09T02:10:18.490Z,5.65
2017-04-09T02:11:19.255Z,5.69
2017-04-09T02:12:20.270Z,5.68
2017-04-09T02:13:21.038Z,5.75
2017-04-09T02:14:21.806Z,5.73
2017-04-09T02:15:22.573Z,5.71
2017-04-09T02:16:23.342Z,5.71
2017-04-09T02:17:24.355Z,5.68
2017-04-09T02:18:25.121Z,5.66
2017-04-09T02:19:25.888Z,5.71
2017-04-09T02:20:26.654Z,5.68
2017-04-09T02:21:27.430Z,5.61
2017-04-09T02:22:28.443Z,5.65
2017-04-09T02:23:29.208Z,5.66
2017-04-09T02:24:29.974Z,5.64
2017-04-09T02:25:30.739Z,5.62
2017-04-09T02:26:31.505Z,5.56
2017-04-09T02:27:32.524Z,5.64
2017-04-09T02:28:33.291Z,5.59
2017-04-09T02:29:34.059Z,5.53
2017-04-09T02:30:34.826Z,5.57
2017-04-09T02:31:35.588Z,5.48
2017-04-09T02:32:36.603Z,5.51
2017-04-09T02:33:37.371Z,5.48
2017-04-09T02:34:38.140Z,5.51
2017-04-09T02:35:38.908Z,5.47
2017-04-09T02:36:39.673Z,5.47
2017-04-09T02:37:40.693Z,5.47
2017-04-09T02:38:41.462Z,5.39
2017-04-09T02:39:42.230Z,5.39
2017-04-09T02:40:42.999Z,5.32
2017-04-09T02:41:43.766Z,5.33
2017-04-09T02:42:44.785Z,5.35
2017-04-09T02:43:45.552Z,5.32
2017-04-09T02:44:46.317Z,5.29
2017-04-09T02:45:47.082Z,5.36
2017-04-09T02:46:47.854Z,5.28
2017-04-09T02:47:48.868Z,5.33
2017-04-09T02:48:49.636Z,5.26
2017-04-09T02:49:50.401Z,5.35
2017-04-09T02:50:51.169Z,5.28
2017-04-09T02:51:51.938Z,5.17
2017-04-09T02:52:52.955Z,5.14
2017-04-09T02:53:53.720Z,5.21
2017-04-09T02:54:54.487Z,5.15
2017-04-09T02:55:55.251Z,5.23
2017-04-09T02:56:56.017Z,5.20
2017-04-09T02:57:57.032Z,5.26
2017-04-09T02:58:57.801Z,5.20
2017-04-09T02:59:58.567Z,5.23
2017-04-09T03:00:59.334Z,5.14
2017-04-09T03:02:00.100Z,5.14
2017-04-09T03:03:01.119Z,5.15
2017-04-09T03:04:01.889Z,5.15
2017-04-09T03:05:02.659Z,5.14
2017-04-09T03:06:03.426Z,5.12
2017-04-09T03:07:04.189Z,5.20
2017-04-09T03:08:05.206Z,5.17
2017-04-09T03:09:05.974Z,5.20
2017-04-09T03:10:06.739Z,5.10
2017-04-09T03:11:07.504Z,5.10
2017-04-09T03:12:08.272Z,5.12
2017-04-09T03:13:09.287Z,5.10
2017-04-09T03:14:10.056Z,5.14
2017-04-09T03:15:10.820Z,5.10
2017-04-09T03:16:11.586Z,5.00
2017-04-09T03:17:12.356Z,5.00
2017-04-09T03:18:13.370Z,4.99
2017-04-09T03:19:14.141Z,5.00
2017-04-09T03:20:14.909Z,5.07
2017-04-09T03:21:15.673Z,5.02
2017-04-09T03:22:16.441Z,5.04
2017-04-09T03:23:17.462Z,4.99
2017-04-09T03:24:18.226Z,5.04
2017-04-09T03:25:18.996Z,4.94
2017-04-09T03:26:19.758Z,4.99
2017-04-09T03:27:20.530Z,4.97
2017-04-09T03:28:21.549Z,4.84
2017-04-09T03:29:22.313Z,4.84
2017-04-09T03:30:23.077Z,4.86
2017-04-09T03:31:23.843Z,4.89
2017-04-09T03:32:24.616Z,4.89
2017-04-09T03:33:25.634Z,4.89
2017-04-09T03:34:26.401Z,4.90
2017-04-09T03:35:27.163Z,4.86
2017-04-09T03:36:27.932Z,4.80
2017-04-09T03:37:28.696Z,4.90
2017-04-09T03:38:29.719Z,4.87
2017-04-09T03:39:30.484Z,4.86
2017-04-09T03:40:31.255Z,4.84
2017-04-09T03:41:32.020Z,4.93
2017-04-09T03:42:32.790Z,4.84
2017-04-09T03:43:33.802Z,4.84
2017-04-09T03:44:34.570Z,4.78
2017-04-09T03:45:35.333Z,4.86
2017-04-09T03:46:36.099Z,4.86
2017-04-09T03:47:36.869Z,4.75
2017-04-09T03:48:37.882Z,4.78
2017-04-09T03:49:38.651Z,4.73
2017-04-09T03:50:39.415Z,4.73
2017-04-09T03:51:40.180Z,4.68
2017-04-09T03:52:40.945Z,4.74
2017-04-09T03:53:41.959Z,4.71
2017-04-09T03:54:42.726Z,4.70
2017-04-09T03:55:43.492Z,4.74
2017-04-09T03:56:44.259Z,4.67
2017-04-09T03:57:45.023Z,4.66
2017-04-09T03:58:46.041Z,4.59
2017-04-09T03:59:46.808Z,4.73
2017-04-09T04:00:47.573Z,4.68
2017-04-09T04:01:48.341Z,4.66
2017-04-09T04:02:49.105Z,4.73
2017-04-09T04:03:50.121Z,4.59
2017-04-09T04:04:50.888Z,4.66
2017-04-09T04:05:51.654Z,4.62
2017-04-09T04:06:52.419Z,4.60
2017-04-09T04:07:53.185Z,4.62
2017-04-09T04:08:54.204Z,4.66
2017-04-09T04:09:54.969Z,4.71
2017-04-09T04:10:55.737Z,4.63
2017-04-09T04:11:56.500Z,4.59
2017-04-09T04:12:57.270Z,4.62
2017-04-09T04:13:58.283Z,4.63
2017-04-09T04:14:59.051Z,4.60
2017-04-09T04:15:59.812Z,4.62
2017-04-09T04:17:00.579Z,4.55
2017-04-09T04:18:01.346Z,4.67
2017-04-09T04:19:02.362Z,4.56
2017-04-09T04:20:03.128Z,4.53
2017-04-09T04:21:03.895Z,4.56
2017-04-09T04:22:04.676Z,4.56
2017-04-09T04:23:05.427Z,4.56
2017-04-09T04:24:06.441Z,4.56
2017-04-09T04:25:07.206Z,4.59
2017-04-09T04:26:07.973Z,4.60
2017-04-09T04:27:08.741Z,4.55
2017-04-09T04:28:09.509Z,4.60
2017-04-09T04:29:10.527Z,4.58
2017-04-09T04:30:11.292Z,4.63
2017-04-09T04:31:12.055Z,4.58
2017-04-09T04:32:12.824Z,4.58
2017-04-09T04:33:13.592Z,4.58
2017-04-09T04:34:14.607Z,4.58
2017-04-09T04:35:15.377Z,4.55
2017-04-09T04:36:16.141Z,4.62
2017-04-09T04:37:16.903Z,4.56
2017-04-09T04:38:17.675Z,4.62
2017-04-09T04:39:18.688Z,4.56
2017-04-09T04:40:19.456Z,4.55
2017-04-09T04:41:20.225Z,4.56
2017-04-09T04:42:20.996Z,4.60
2017-04-09T04:43:21.764Z,4.58
2017-04-09T04:44:22.969Z,4.63
2017-04-09T04:45:23.737Z,4.52
2017-04-09T04:46:24.502Z,4.56
2017-04-09T04:47:25.272Z,4.58
2017-04-09T04:48:26.042Z,4.62
2017-04-09T04:49:27.055Z,4.60
2017-04-09T04:50:27.824Z,4.60
2017-04-09T04:51:28.594Z,4.55
2017-04-09T04:52:29.366Z,4.58
2017-04-09T04:53:30.139Z,4.56
2017-04-09T04:54:31.157Z,4.56
2017-04-09T04:55:31.926Z,4.59
2017-04-09T04:56:32.693Z,4.53
2017-04-09T04:57:33.465Z,4.60
2017-04-09T04:58:34.237Z,4.58
2017-04-09T04:59:35.258Z,4.53
2017-04-09T05:00:36.028Z,4.56
2017-04-09T05:01:36.796Z,4.58
2017-04-09T05:02:37.570Z,4.62
2017-04-09T05:03:38.336Z,4.55
2017-04-09T05:04:39.351Z,4.56
2017-04-09T05:05:40.120Z,4.55
2017-04-09T05:06:40.894Z,4.63
2017-04-09T05:07:41.669Z,4.56
2017-04-09T05:08:42.436Z,4.55
2017-04-09T05:09:43.457Z,4.55
2017-04-09T05:10:44.225Z,4.59
2017-04-09T05:11:45.000Z,4.70
2017-04-09T05:12:45.767Z,4.58
2017-04-09T05:13:46.534Z,4.53
2017-04-09T05:14:47.557Z,4.70
2017-04-09T05:15:48.326Z,4.59
2017-04-09T05:16:49.097Z,4.67
2017-04-09T05:17:49.870Z,4.67
2017-04-09T05:18:50.651Z,4.63
2017-04-09T05:19:51.657Z,4.60
2017-04-09T05:20:52.563Z,4.55
2017-04-09T05:21:54.588Z,4.62
2017-04-09T05:22:55.409Z,4.56
2017-04-09T05:23:56.259Z,4.71
2017-04-09T05:24:57.470Z,4.62
2017-04-09T05:25:58.590Z,4.74
2017-04-09T05:26:59.416Z,4.68
2017-04-09T05:28:00.185Z,4.73
2017-04-09T05:29:00.957Z,4.66
2017-04-09T05:30:01.980Z,4.59
2017-04-09T05:31:02.750Z,4.73
2017-04-09T05:32:03.524Z,4.73
2017-04-09T05:33:04.291Z,4.80
2017-04-09T05:34:05.064Z,4.78
2017-04-09T05:35:06.084Z,4.87
2017-04-09T05:36:06.855Z,4.77
2017-04-09T05:37:07.627Z,4.87
2017-04-09T05:38:08.397Z,4.89
2017-04-09T05:39:09.168Z,4.90
2017-04-09T05:40:10.188Z,4.99
2017-04-09T05:41:10.961Z,5.12
2017-04-09T05:42:11.730Z,5.10
2017-04-09T05:43:12.532Z,5.10
2017-04-09T05:44:13.297Z,5.14
2017-04-09T05:45:14.313Z,5.17
2017-04-09T05:46:15.162Z,5.20
2017-04-09T05:47:15.965Z,5.20
2017-04-09T05:48:16.734Z,5.25
2017-04-09T05:49:17.508Z,5.35
2017-04-09T05:50:18.530Z,5.38
2017-04-09T05:51:19.333Z,5.43
2017-04-09T05:52:20.097Z,5.48
2017-04-09T05:53:20.868Z,5.64
2017-04-09T05:54:21.640Z,5.68
2017-04-09T05:55:22.671Z,5.64
2017-04-09T05:56:23.557Z,5.59
2017-04-09T05:57:24.352Z,5.76
2017-04-09T05:58:25.222Z,5.84
2017-04-09T05:59:25.991Z,5.89
2017-04-09T06:00:27.091Z,5.91
2017-04-09T06:01:27.862Z,5.94
2017-04-09T06:02:28.635Z,5.94
2017-04-09T06:03:29.407Z,6.05
2017-04-09T06:04:30.181Z,6.19
2017-04-09T06:05:31.204Z,6.26
2017-04-09T06:06:32.027Z,6.39
2017-04-09T06:07:32.802Z,6.45
2017-04-09T06:08:33.577Z,6.49
2017-04-09T06:09:34.352Z,6.56
2017-04-09T06:10:35.377Z,6.66
2017-04-09T06:11:36.150Z,6.70
2017-04-09T06:12:36.928Z,6.69
2017-04-09T06:13:37.694Z,6.78
2017-04-09T06:14:38.467Z,6.95
2017-04-09T06:15:39.491Z,6.97
2017-04-09T06:16:40.269Z,7.11
2017-04-09T06:17:41.038Z,7.23
2017-04-09T06:18:41.811Z,7.23
2017-04-09T06:19:42.638Z,7.35
2017-04-09T06:20:43.692Z,7.42
2017-04-09T06:21:44.462Z,7.56
2017-04-09T06:22:45.273Z,7.70
2017-04-09T06:23:46.006Z,7.76
2017-04-09T06:24:46.779Z,7.90
2017-04-09T06:25:47.800Z,7.88
2017-04-09T06:26:48.604Z,7.97
2017-04-09T06:27:49.429Z,8.00
2017-04-09T06:28:50.270Z,8.00
2017-04-09T06:29:51.053Z,8.18
2017-04-09T06:30:52.154Z,8.30
2017-04-09T06:31:52.943Z,8.31
2017-04-09T06:32:53.717Z,8.56
2017-04-09T06:33:54.492Z,8.71
2017-04-09T06:34:55.267Z,8.71
2017-04-09T06:35:56.297Z,8.82
2017-04-09T06:36:57.072Z,8.99
2017-04-09T06:37:57.851Z,9.13
2017-04-09T06:38:58.626Z,9.23
2017-04-09T06:39:59.406Z,9.37
2017-04-09T06:41:00.433Z,9.50
2017-04-09T06:42:01.211Z,9.65
2017-04-09T06:43:01.989Z,9.68
2017-04-09T06:44:02.772Z,9.92
2017-04-09T06:45:03.555Z,9.99
2017-04-09T06:46:04.580Z,9.99
2017-04-09T06:47:05.362Z,10.15
2017-04-09T06:48:06.145Z,10.41
2017-04-09T06:49:06.922Z,10.49
2017-04-09T06:50:07.706Z,10.42
2017-04-09T06:51:08.739Z,10.51
2017-04-09T06:52:09.517Z,10.64
2017-04-09T06:53:10.298Z,10.64
2017-04-09T06:54:11.078Z,10.78
2017-04-09T06:55:11.863Z,10.81
2017-04-09T06:56:12.895Z,10.89
2017-04-09T06:57:13.678Z,10.90
2017-04-09T06:58:14.647Z,11.00
2017-04-09T06:59:15.428Z,11.14
2017-04-09T07:00:16.209Z,11.05
2017-04-09T07:01:17.243Z,11.11
2017-04-09T07:02:18.026Z,11.27
2017-04-09T07:03:18.808Z,11.23
2017-04-09T07:04:19.593Z,11.11
2017-04-09T07:05:20.377Z,11.12
2017-04-09T07:06:21.412Z,11.18
2017-04-09T07:07:22.197Z,11.12
2017-04-09T07:08:22.976Z,11.27
2017-04-09T07:09:23.762Z,11.40
2017-04-09T07:10:24.542Z,11.62
2017-04-09T07:11:25.576Z,11.66
2017-04-09T07:12:26.359Z,11.52
2017-04-09T07:13:27.144Z,11.84
2017-04-09T07:14:27.926Z,12.10
2017-04-09T07:15:28.713Z,12.43
2017-04-09T07:16:29.744Z,12.57
2017-04-09T07:17:30.528Z,12.76
2017-04-09T07:18:31.314Z,12.85
2017-04-09T07:19:32.099Z,12.97
2017-04-09T07:20:32.885Z,13.04
2017-04-09T07:21:33.919Z,13.13
2017-04-09T07:22:34.700Z,13.47
2017-04-09T07:23:35.487Z,13.70
2017-04-09T07:24:36.270Z,13.60
2017-04-09T07:25:37.057Z,13.68
2017-04-09T07:26:38.091Z,13.44
2017-04-09T07:27:38.877Z,13.50
2017-04-09T07:28:39.660Z,13.79
2017-04-09T07:29:40.447Z,13.87
2017-04-09T07:30:41.232Z,13.53
2017-04-09T07:31:42.267Z,13.78
2017-04-09T07:32:43.052Z,13.96
2017-04-09T07:33:43.841Z,14.40
2017-04-09T07:34:44.629Z,14.51
2017-04-09T07:35:45.408Z,14.53
2017-04-09T07:36:46.629Z,14.41
2017-04-09T07:37:47.414Z,14.69
2017-04-09T07:38:48.202Z,14.94
2017-04-09T07:39:48.983Z,14.60
2017-04-09T07:40:49.769Z,14.51
2017-04-09T07:41:50.806Z,14.68
2017-04-09T07:42:51.589Z,14.85
2017-04-09T07:43:52.374Z,14.63
2017-04-09T07:44:53.159Z,14.63
2017-04-09T07:45:53.948Z,14.40
2017-04-09T07:46:54.987Z,14.37
2017-04-09T07:47:55.770Z,14.40
2017-04-09T07:48:56.559Z,14.03
2017-04-09T07:49:57.345Z,13.78
2017-04-09T07:50:58.131Z,13.62
2017-04-09T07:51:59.166Z,13.35
2017-04-09T07:52:59.953Z,13.38
2017-04-09T07:54:00.740Z,13.47
2017-04-09T07:55:01.528Z,13.44
2017-04-09T07:56:02.322Z,13.72
2017-04-09T07:57:03.359Z,14.00
2017-04-09T07:58:04.149Z,14.07
2017-04-09T07:59:04.940Z,14.07
2017-04-09T08:00:05.730Z,13.89
2017-04-09T08:01:06.522Z,14.15
2017-04-09T08:02:07.529Z,14.22
2017-04-09T08:03:08.322Z,14.43
2017-04-09T08:04:09.112Z,14.29
2017-04-09T08:05:09.901Z,14.17
2017-04-09T08:06:10.691Z,14.11
2017-04-09T08:07:11.735Z,14.18
2017-04-09T08:08:12.527Z,14.22
2017-04-09T08:09:13.317Z,14.29
2017-04-09T08:10:14.106Z,14.37
2017-04-09T08:11:14.900Z,14.59
2017-04-09T08:12:15.946Z,14.60
2017-04-09T08:13:16.731Z,14.92
2017-04-09T08:14:17.522Z,14.62
2017-04-09T08:15:18.317Z,14.79
2017-04-09T08:16:19.113Z,14.97
2017-04-09T08:17:20.156Z,14.88
2017-04-09T08:18:20.946Z,14.84
2017-04-09T08:19:21.740Z,14.84
2017-04-09T08:20:22.530Z,15.47
2017-04-09T08:21:23.328Z,15.40
2017-04-09T08:22:24.367Z,15.86
2017-04-09T08:23:25.163Z,16.58
2017-04-09T08:24:25.956Z,16.23
2017-04-09T08:25:26.748Z,16.23
2017-04-09T08:26:27.545Z,16.31
2017-04-09T08:27:28.587Z,16.39
2017-04-09T08:28:29.387Z,16.09
2017-04-09T08:29:30.177Z,16.56
2017-04-09T08:30:30.973Z,16.76
2017-04-09T08:31:31.767Z,16.35
2017-04-09T08:32:32.809Z,16.49
2017-04-09T08:33:33.603Z,17.16
2017-04-09T08:34:34.393Z,17.33
2017-04-09T08:35:35.181Z,17.54
2017-04-09T08:36:35.974Z,17.41
2017-04-09T08:37:37.015Z,17.01
2017-04-09T08:38:37.806Z,16.74
2017-04-09T08:39:38.600Z,16.71
2017-04-09T08:40:39.394Z,17.19
2017-04-09T08:41:40.184Z,17.01
2017-04-09T08:42:41.225Z,17.63
2017-04-09T08:43:42.016Z,18.13
2017-04-09T08:44:42.808Z,18.58
2017-04-09T08:45:43.599Z,18.59
2017-04-09T08:46:44.391Z,18.15
2017-04-09T08:47:45.432Z,18.80
2017-04-09T08:48:46.229Z,19.45
2017-04-09T08:49:47.023Z,20.10
2017-04-09T08:50:47.816Z,20.75
2017-04-09T08:51:48.611Z,21.24
2017-04-09T08:52:49.650Z,21.27
2017-04-09T08:53:50.445Z,21.03
2017-04-09T08:54:51.241Z,20.43
2017-04-09T08:55:52.035Z,20.60
2017-04-09T08:56:52.829Z,20.87
2017-04-09T08:57:53.875Z,20.93
2017-04-09T08:58:54.665Z,21.14
2017-04-09T08:59:55.457Z,21.39
2017-04-09T09:00:56.251Z,21.79
2017-04-09T09:01:57.049Z,22.08
2017-04-09T09:02:58.095Z,21.67
2017-04-09T09:03:58.888Z,21.82
2017-04-09T09:04:59.682Z,21.79
2017-04-09T09:06:00.477Z,21.58
2017-04-09T09:07:01.274Z,20.92
2017-04-09T09:08:02.320Z,21.27
2017-04-09T09:09:03.119Z,20.95
2017-04-09T09:10:03.915Z,21.05
2017-04-09T09:11:04.709Z,21.48
2017-04-09T09:12:05.505Z,21.89
2017-04-09T09:13:06.550Z,22.41
2017-04-09T09:14:07.344Z,22.55
2017-04-09T09:15:08.142Z,22.88
2017-04-09T09:16:08.936Z,21.96
2017-04-09T09:17:09.734Z,21.46
2017-04-09T09:18:10.781Z,21.69
2017-04-09T09:19:11.580Z,21.66
2017-04-09T09:20:12.380Z,22.33
2017-04-09T09:21:13.178Z,21.52
2017-04-09T09:22:13.976Z,21.85
2017-04-09T09:23:15.023Z,22.14
2017-04-09T09:24:15.827Z,21.77
2017-04-09T09:25:16.615Z,21.92
2017-04-09T09:26:17.411Z,22.50
2017-04-09T09:27:18.210Z,22.84
2017-04-09T09:28:19.259Z,23.28
2017-04-09T09:29:20.054Z,23.00
2017-04-09T09:30:20.852Z,23.74
2017-04-09T09:31:21.654Z,23.47
2017-04-09T09:32:22.459Z,23.46
2017-04-09T09:33:23.507Z,23.71
2017-04-09T09:34:24.310Z,23.96
2017-04-09T09:35:25.110Z,24.21
2017-04-09T09:36:25.908Z,24.33
2017-04-09T09:37:26.709Z,23.62
2017-04-09T09:38:27.766Z,23.96
2017-04-09T09:39:28.571Z,23.73
2017-04-09T09:40:29.374Z,22.91
2017-04-09T09:41:30.176Z,22.93
2017-04-09T09:42:30.984Z,22.15
2017-04-09T09:43:32.036Z,21.96
2017-04-09T09:44:32.844Z,22.17
2017-04-09T09:45:33.644Z,22.14
2017-04-09T09:46:34.451Z,22.55
2017-04-09T09:47:35.256Z,23.08
2017-04-09T09:48:36.312Z,23.77
2017-04-09T09:49:37.113Z,24.23
2017-04-09T09:50:37.922Z,23.69
2017-04-09T09:51:38.739Z,22.99
2017-04-09T09:52:39.537Z,22.28
2017-04-09T09:53:40.596Z,22.23
2017-04-09T09:54:41.395Z,22.26
2017-04-09T09:55:42.204Z,22.98
2017-04-09T09:56:43.010Z,23.80
2017-04-09T09:57:43.816Z,24.05
2017-04-09T09:58:44.875Z,24.43
2017-04-09T09:59:45.681Z,24.69
2017-04-09T10:00:46.486Z,25.28
2017-04-09T10:01:47.293Z,25.55
2017-04-09T10:02:48.095Z,25.87
2017-04-09T10:03:49.147Z,25.95
2017-04-09T10:04:49.957Z,25.83
2017-04-09T10:05:50.761Z,25.53
2017-04-09T10:06:51.571Z,24.38
2017-04-09T10:07:52.373Z,23.99
2017-04-09T10:08:53.431Z,23.20
2017-04-09T10:09:54.241Z,23.32
2017-04-09T10:10:55.051Z,22.36
2017-04-09T10:11:55.853Z,23.08
2017-04-09T10:12:56.658Z,23.40
2017-04-09T10:13:57.717Z,23.48
2017-04-09T10:14:58.524Z,23.31
2017-04-09T10:15:59.333Z,23.06
2017-04-09T10:17:00.132Z,23.96
2017-04-09T10:18:00.938Z,24.76
2017-04-09T10:19:01.996Z,24.89
2017-04-09T10:20:02.794Z,25.28
2017-04-09T10:21:03.603Z,26.02
2017-04-09T10:22:04.403Z,26.29
2017-04-09T10:23:05.207Z,26.68
2017-04-09T10:24:06.261Z,26.40
2017-04-09T10:25:07.067Z,26.09
2017-04-09T10:26:07.870Z,25.99
2017-04-09T10:27:08.677Z,25.10
2017-04-09T10:28:09.482Z,25.33
2017-04-09T10:29:10.540Z,24.91
2017-04-09T10:30:11.344Z,24.98
2017-04-09T10:31:12.335Z,24.76
2017-04-09T10:32:13.141Z,25.51
2017-04-09T10:33:13.942Z,25.26
2017-04-09T10:34:15.005Z,25.14
2017-04-09T10:35:15.802Z,24.89
2017-04-09T10:36:16.605Z,24.93
2017-04-09T10:37:17.410Z,25.41
2017-04-09T10:38:18.215Z,25.53
2017-04-09T10:39:19.268Z,24.89
2017-04-09T10:40:20.075Z,24.76
2017-04-09T10:41:21.065Z,24.98
2017-04-09T10:42:21.873Z,25.85
2017-04-09T10:43:22.673Z,26.88
2017-04-09T10:44:23.732Z,26.92
2017-04-09T10:45:24.534Z,26.38
2017-04-09T10:46:25.342Z,25.75
2017-04-09T10:47:26.150Z,24.77
2017-04-09T10:48:26.957Z,26.05
2017-04-09T10:49:28.010Z,25.96
2017-04-09T10:50:28.813Z,25.90
2017-04-09T10:51:29.620Z,26.09
2017-04-09T10:52:30.429Z,26.44
2017-04-09T10:53:31.231Z,26.83
2017-04-09T10:54:32.283Z,26.43
2017-04-09T10:55:33.089Z,26.16
2017-04-09T10:56:33.895Z,25.83
2017-04-09T10:57:34.702Z,23.98
2017-04-09T10:58:35.500Z,24.08
2017-04-09T10:59:36.557Z,23.48
2017-04-09T11:00:37.367Z,23.44
2017-04-09T11:01:38.172Z,23.10
2017-04-09T11:02:38.977Z,24.74
2017-04-09T11:03:39.781Z,24.92
2017-04-09T11:04:40.836Z,25.54
2017-04-09T11:05:41.643Z,24.23
2017-04-09T11:06:42.448Z,24.21
2017-04-09T11:07:43.253Z,23.43
2017-04-09T11:08:44.059Z,23.88
2017-04-09T11:09:45.111Z,23.54
2017-04-09T11:10:45.920Z,23.93
2017-04-09T11:11:46.725Z,25.13
2017-04-09T11:12:47.527Z,25.73
2017-04-09T11:13:48.329Z,24.85
2017-04-09T11:14:49.381Z,24.86
2017-04-09T11:15:50.184Z,26.03
2017-04-09T11:16:50.995Z,25.11
2017-04-09T11:17:51.792Z,24.96
2017-04-09T11:18:52.599Z,25.72
2017-04-09T11:19:53.654Z,25.99
2017-04-09T11:20:54.455Z,25.80
2017-04-09T11:21:55.266Z,26.31
2017-04-09T11:22:56.068Z,26.18
2017-04-09T11:23:56.872Z,26.16
2017-04-09T11:24:57.927Z,26.28
2017-04-09T11:25:58.732Z,26.81
2017-04-09T11:26:59.536Z,26.78
2017-04-09T11:28:00.343Z,27.74
2017-04-09T11:29:01.145Z,28.08
2017-04-09T11:30:02.383Z,28.10
2017-04-09T11:31:03.191Z,27.32
2017-04-09T11:32:03.998Z,26.26
2017-04-09T11:33:04.807Z,25.72
2017-04-09T11:34:05.613Z,25.36
2017-04-09T11:35:06.669Z,24.85
2017-04-09T11:36:07.479Z,25.29
2017-04-09T11:37:08.284Z,26.02
2017-04-09T11:38:09.100Z,25.14
2017-04-09T11:39:09.902Z,25.14
2017-04-09T11:40:10.956Z,25.28
2017-04-09T11:41:11.761Z,24.96
2017-04-09T11:42:12.570Z,24.03
2017-04-09T11:43:13.375Z,23.55
2017-04-09T11:44:14.175Z,24.02
2017-04-09T11:45:15.230Z,24.99
2017-04-09T11:46:16.037Z,25.51
2017-04-09T11:47:16.840Z,25.75
2017-04-09T11:48:17.643Z,26.43
2017-04-09T11:49:18.449Z,27.37
2017-04-09T11:50:19.505Z,27.75
2017-04-09T11:51:20.309Z,28.47
2017-04-09T11:52:21.116Z,28.14
2017-04-09T11:53:21.921Z,28.04
2017-04-09T11:54:22.725Z,28.25
2017-04-09T11:55:23.777Z,28.66
2017-04-09T11:56:24.582Z,28.91
2017-04-09T11:57:25.390Z,29.54
2017-04-09T11:58:26.196Z,29.51
2017-04-09T11:59:27.002Z,28.20
2017-04-09T12:00:28.049Z,28.11
2017-04-09T12:01:28.853Z,28.59
2017-04-09T12:02:29.661Z,28.04
2017-04-09T12:03:30.462Z,27.92
2017-04-09T12:04:31.268Z,27.60
2017-04-09T12:05:32.320Z,27.03
2017-04-09T12:06:33.122Z,26.38
2017-04-09T12:07:33.921Z,26.89
2017-04-09T12:08:34.722Z,26.88
2017-04-09T12:09:35.524Z,27.07
2017-04-09T12:10:36.579Z,27.02
2017-04-09T12:11:37.392Z,26.56
2017-04-09T12:12:38.196Z,27.47
2017-04-09T12:13:38.999Z,27.05
2017-04-09T12:14:39.800Z,27.07
2017-04-09T12:15:40.853Z,27.52
2017-04-09T12:16:41.680Z,26.85
2017-04-09T12:17:42.455Z,27.11
2017-04-09T12:18:43.253Z,27.15
2017-04-09T12:19:44.057Z,27.74
2017-04-09T12:20:45.116Z,28.02
2017-04-09T12:21:45.914Z,27.52
2017-04-09T12:22:46.714Z,27.39
2017-04-09T12:23:47.519Z,27.37
2017-04-09T12:24:48.319Z,26.77
2017-04-09T12:25:49.374Z,26.34
2017-04-09T12:26:50.184Z,25.83
2017-04-09T12:27:50.981Z,26.38
2017-04-09T12:28:51.786Z,27.07
2017-04-09T12:29:52.595Z,27.85
2017-04-09T12:30:53.644Z,28.01
2017-04-09T12:31:54.445Z,27.51
2017-04-09T12:32:55.249Z,26.88
2017-04-09T12:33:56.053Z,26.73
2017-04-09T12:34:56.859Z,26.51
2017-04-09T12:35:57.917Z,27.52
2017-04-09T12:36:58.723Z,26.23
2017-04-09T12:37:59.529Z,25.78
2017-04-09T12:39:00.333Z,26.06
2017-04-09T12:40:01.135Z,26.07
2017-04-09T12:41:02.193Z,26.70
2017-04-09T12:42:03.002Z,26.52
2017-04-09T12:43:03.809Z,26.21
2017-04-09T12:44:04.615Z,26.38
2017-04-09T12:45:05.416Z,25.69
2017-04-09T12:46:06.470Z,25.80
2017-04-09T12:47:07.275Z,25.78
2017-04-09T12:48:08.081Z,26.23
2017-04-09T12:49:08.885Z,25.50
2017-04-09T12:50:09.696Z,25.99
2017-04-09T12:51:10.749Z,26.62
2017-04-09T12:52:11.554Z,27.15
2017-04-09T12:53:12.356Z,27.05
2017-04-09T12:54:13.162Z,26.07
2017-04-09T12:55:13.966Z,26.18
2017-04-09T12:56:15.021Z,27.05
2017-04-09T12:57:15.823Z,27.54
2017-04-09T12:58:16.629Z,27.86
2017-04-09T12:59:17.433Z,27.95
2017-04-09T13:00:18.239Z,27.30
2017-04-09T13:01:19.294Z,27.90
2017-04-09T13:02:20.097Z,27.47
2017-04-09T13:03:20.903Z,26.62
2017-04-09T13:04:21.707Z,27.75
2017-04-09T13:05:22.515Z,28.23
2017-04-09T13:06:23.569Z,27.93
2017-04-09T13:07:24.370Z,27.39
2017-04-09T13:08:25.172Z,27.29
2017-04-09T13:09:25.978Z,27.03
2017-04-09T13:10:26.783Z,26.97
2017-04-09T13:11:27.831Z,27.03
2017-04-09T13:12:28.637Z,27.03
2017-04-09T13:13:29.439Z,26.81
2017-04-09T13:14:30.245Z,26.99
2017-04-09T13:15:31.053Z,26.89
2017-04-09T13:16:32.104Z,27.74